Time;durP1;ratioP1;P1;durP2;ratioP2;P2;SDS_P1;SDS_P2;PMS_P1;PMS_P2;Temp;Humidity;BMP_temperature;BMP_pressure;BME280_temperature;BME280_humidity;BME280_pressure;Samples;Min_cycle;Max_cycle;Signal;HPM_P1;HPM_P2
2021/12/10 00:10:13;;;;;;;0.50;0.40;;;22.80;60.60;;;;;;31552005;28;20068;-43
2021/12/10 00:25:19;;;;;;;0.30;0.30;;;22.70;60.60;;;;;;31593321;28;20056;-52
2021/12/10 00:40:24;;;;;;;0.20;0.20;;;22.90;60.60;;;;;;31678819;28;20045;-43
2021/12/10 00:55:27;;;;;;;0.20;0.20;;;23.30;60.20;;;;;;31628852;28;20058;-46
2021/12/10 01:10:40;;;;;;;0.30;0.30;;;23.30;59.80;;;;;;31702735;28;20052;-50
2021/12/10 01:25:54;;;;;;;0.32;0.32;;;23.20;59.70;;;;;;31661776;28;20076;-49
2021/12/10 01:40:59;;;;;;;0.30;0.30;;;23.10;60.00;;;;;;31616611;28;20048;-48
2021/12/10 01:56:10;;;;;;;0.30;0.30;;;22.90;60.40;;;;;;31585972;28;20108;-45
2021/12/10 02:11:13;;;;;;;0.30;0.20;;;22.80;60.60;;;;;;31542556;28;20087;-53
2021/12/10 02:26:15;;;;;;;0.52;0.22;;;22.80;60.60;;;;;;31597978;28;20053;-51
2021/12/10 02:41:21;;;;;;;0.38;0.32;;;23.10;60.70;;;;;;31613798;28;20044;-49
2021/12/10 02:56:23;;;;;;;0.20;0.20;;;23.40;60.30;;;;;;31601949;28;20135;-53
2021/12/10 03:11:30;;;;;;;0.20;0.20;;;23.30;59.80;;;;;;31669464;28;20044;-52
2021/12/10 03:26:32;;;;;;;0.40;0.40;;;23.20;60.00;;;;;;31620074;28;20053;-47
2021/12/10 03:41:34;;;;;;;0.30;0.30;;;23.00;60.20;;;;;;31652036;28;20078;-46
2021/12/10 03:56:38;;;;;;;0.20;0.20;;;22.90;60.50;;;;;;31566761;28;20100;-51
2021/12/10 04:11:41;;;;;;;0.20;0.20;;;22.80;60.70;;;;;;31549628;28;20061;-46
2021/12/10 04:26:44;;;;;;;0.10;0.10;;;22.70;60.70;;;;;;31572568;28;20094;-46
2021/12/10 04:41:46;;;;;;;0.20;0.20;;;23.10;60.90;;;;;;31580151;28;20059;-49
2021/12/10 04:56:51;;;;;;;0.13;0.10;;;23.40;60.60;;;;;;31607805;28;20082;-52
2021/12/10 05:11:56;;;;;;;0.30;0.30;;;23.30;60.20;;;;;;31582389;28;20104;-47
2021/12/10 05:27:00;;;;;;;0.10;0.10;;;23.20;60.30;;;;;;31613055;28;20052;-51
2021/12/10 05:42:04;;;;;;;0.10;0.10;;;23.10;60.60;;;;;;31597145;28;20055;-49
2021/12/10 05:57:06;;;;;;;0.10;0.10;;;23.00;60.80;;;;;;31581612;28;20048;-51
2021/12/10 06:12:09;;;;;;;11.43;4.85;;;22.90;61.10;;;;;;31557430;28;20045;-56
2021/12/10 06:27:11;;;;;;;7.43;2.95;;;22.70;61.10;;;;;;31630571;28;21069;-57
2021/12/10 06:42:13;;;;;;;6.32;2.60;;;23.10;61.40;;;;;;31621984;28;20045;-57
2021/12/10 06:57:36;;;;;;;7.50;2.90;;;23.30;60.70;;;;;;31571344;28;20045;-55
2021/12/10 07:12:40;;;;;;;5.00;2.65;;;23.20;60.30;;;;;;31696249;28;20131;-56
2021/12/10 07:27:42;;;;;;;12.07;8.60;;;23.10;60.50;;;;;;31694033;28;20053;-51
2021/12/10 07:42:44;;;;;;;26.10;19.20;;;22.90;60.60;;;;;;31640128;28;20075;-44
2021/12/10 07:57:46;;;;;;;13.85;10.98;;;22.70;59.30;;;;;;31661384;28;20056;-56
2021/12/10 08:12:49;;;;;;;18.48;13.27;;;22.90;59.00;;;;;;31634240;28;20095;-47
2021/12/10 08:27:52;;;;;;;12.93;9.65;;;23.20;57.70;;;;;;31660923;28;20118;-61
2021/12/10 08:42:54;;;;;;;10.30;7.88;;;23.10;57.80;;;;;;31626781;28;20104;-67
2021/12/10 08:57:56;;;;;;;7.38;6.35;;;23.00;58.10;;;;;;31513766;28;20079;-59
2021/12/10 09:13:00;;;;;;;8.13;5.20;;;22.90;58.10;;;;;;31659193;28;20044;-59
2021/12/10 09:28:03;;;;;;;4.35;3.67;;;22.80;58.30;;;;;;31747456;28;20093;-58
2021/12/10 09:43:08;;;;;;;4.45;3.50;;;23.10;57.90;;;;;;31650149;28;20052;-58
2021/12/10 09:58:10;;;;;;;3.38;2.72;;;23.30;57.70;;;;;;31632451;28;20118;-59
2021/12/10 10:13:12;;;;;;;2.55;2.22;;;23.20;58.00;;;;;;31734882;28;20859;-58
2021/12/10 10:28:15;;;;;;;4.63;2.67;;;23.00;58.10;;;;;;31663565;28;20071;-60
2021/12/10 10:43:17;;;;;;;4.85;2.05;;;22.90;58.30;;;;;;31658699;28;20045;-60
2021/12/10 10:58:23;;;;;;;3.25;1.80;;;22.80;58.90;;;;;;31623501;28;20074;-60
2021/12/10 11:13:28;;;;;;;5.07;1.45;;;23.20;59.30;;;;;;31765016;28;20100;-59
2021/12/10 11:28:34;;;;;;;2.50;1.15;;;23.40;59.00;;;;;;31647062;28;20108;-59
2021/12/10 11:44:06;;;;;;;1.60;1.20;;;23.30;59.10;;;;;;31668294;28;20085;-60
2021/12/10 11:59:21;;;;;;;2.95;1.10;;;23.10;59.30;;;;;;31752249;28;20103;-61
2021/12/10 12:14:28;;;;;;;1.23;1.02;;;23.00;59.50;;;;;;31666460;28;20056;-58
2021/12/10 12:29:39;;;;;;;2.58;1.20;;;22.80;59.70;;;;;;31613849;28;20104;-52
2021/12/10 12:44:43;;;;;;;1.10;1.00;;;23.10;59.70;;;;;;31633625;28;20060;-50
2021/12/10 13:00:40;;;;;;;1.40;0.82;;;23.30;59.20;;;;;;31703851;28;20059;-50
2021/12/10 13:15:50;;;;;;;0.82;0.70;;;23.20;59.30;;;;;;31705232;28;20056;-50
2021/12/10 13:30:59;;;;;;;0.60;0.60;;;23.10;59.40;;;;;;31754630;28;20052;-52
2021/12/10 13:46:12;;;;;;;0.60;0.60;;;23.00;59.50;;;;;;31704741;28;20123;-51
2021/12/10 14:01:33;;;;;;;0.40;0.40;;;22.90;59.80;;;;;;31635608;28;20073;-52
2021/12/10 14:16:58;;;;;;;4.88;0.70;;;23.10;59.40;;;;;;31717954;28;20080;-51
2021/12/10 14:32:26;;;;;;;10.43;0.73;;;23.30;58.90;;;;;;31568069;28;20053;-50
2021/12/10 14:47:28;;;;;;;1.67;1.00;;;23.20;59.20;;;;;;31602356;28;20059;-57
2021/12/10 15:02:58;;;;;;;1.00;0.90;;;23.10;59.20;;;;;;31680373;28;20048;-57
2021/12/10 15:18:53;;;;;;;3.17;1.03;;;23.00;59.50;;;;;;31720867;28;20052;-59
2021/12/10 15:33:55;;;;;;;0.73;0.68;;;22.90;59.70;;;;;;31634461;28;20048;-56
2021/12/10 15:49:11;;;;;;;0.60;0.50;;;23.20;59.30;;;;;;31706715;28;20040;-56
2021/12/10 16:04:46;;;;;;;0.55;0.50;;;23.30;59.00;;;;;;31639545;28;20099;-56
2021/12/10 16:19:49;;;;;;;0.77;0.63;;;23.20;59.10;;;;;;31630210;28;20048;-57
2021/12/10 16:35:04;;;;;;;0.40;0.40;;;23.10;59.10;;;;;;31628067;28;20052;-57
2021/12/10 16:50:08;;;;;;;0.32;0.32;;;23.00;59.40;;;;;;31626524;28;20190;-56
2021/12/10 17:05:17;;;;;;;0.47;0.30;;;22.90;59.60;;;;;;31624563;28;20132;-56
2021/12/10 17:20:28;;;;;;;0.30;0.30;;;23.20;59.20;;;;;;31623255;28;20052;-57
2021/12/10 17:35:36;;;;;;;0.38;0.38;;;23.30;58.90;;;;;;31621598;28;20049;-57
2021/12/10 17:50:41;;;;;;;0.35;0.35;;;23.20;59.00;;;;;;31620675;28;20041;-56
2021/12/10 18:05:44;;;;;;;0.32;0.30;;;23.10;59.00;;;;;;31623493;28;20093;-57
2021/12/10 18:20:50;;;;;;;0.63;0.30;;;23.00;59.30;;;;;;31613563;28;20080;-52
2021/12/10 18:35:55;;;;;;;0.30;0.30;;;22.90;59.50;;;;;;31634013;28;20064;-57
2021/12/10 18:51:06;;;;;;;0.20;0.20;;;22.90;59.90;;;;;;31640856;28;20103;-57
2021/12/10 19:06:15;;;;;;;0.30;0.25;;;22.90;60.00;;;;;;31640237;28;20052;-59
2021/12/10 19:21:52;;;;;;;0.20;0.20;;;23.20;59.60;;;;;;31631707;28;20040;-55
2021/12/10 19:37:02;;;;;;;0.40;0.20;;;23.30;59.40;;;;;;31560402;28;20057;-59
2021/12/10 19:52:11;;;;;;;0.95;0.20;;;23.20;59.40;;;;;;31628454;28;20142;-59
2021/12/10 20:07:14;;;;;;;3.05;0.90;;;23.10;59.60;;;;;;31635709;28;20119;-49
2021/12/10 20:22:24;;;;;;;7.30;1.20;;;23.10;60.20;;;;;;31590729;28;20049;-58
2021/12/10 20:37:29;;;;;;;4.13;1.00;;;23.20;60.20;;;;;;31623726;28;20119;-51
2021/12/10 20:52:40;;;;;;;5.00;1.00;;;23.00;60.70;;;;;;31618361;28;20056;-48
2021/12/10 21:07:45;;;;;;;2.70;0.82;;;23.00;60.70;;;;;;31498446;28;20048;-51
2021/12/10 21:22:52;;;;;;;4.43;0.70;;;22.80;61.20;;;;;;31537935;28;20131;-51
2021/12/10 21:38:01;;;;;;;4.00;0.75;;;22.80;61.50;;;;;;31591082;28;20086;-55
2021/12/10 21:53:05;;;;;;;1.97;0.70;;;23.30;60.80;;;;;;31576638;28;20063;-51
2021/12/10 22:08:21;;;;;;;1.77;1.00;;;23.30;60.70;;;;;;31545091;28;20091;-51
2021/12/10 22:23:24;;;;;;;2.25;0.88;;;23.20;61.40;;;;;;31595485;28;20049;-48
2021/12/10 22:38:28;;;;;;;1.10;0.63;;;23.20;61.80;;;;;;31511537;28;20041;-44
2021/12/10 22:53:36;;;;;;;1.65;0.20;;;23.20;61.70;;;;;;31566821;28;20099;-47
2021/12/10 23:24:33;;;;;;;0.10;0.10;;;23.10;61.80;;;;;;31520925;28;20064;-44
2021/12/10 23:40:00;;;;;;;50.35;39.65;;;23.10;61.40;;;;;;31262548;28;10000779;-48
2021/12/10 23:55:23;;;;;;;24.00;19.63;;;23.00;61.30;;;;;;31577768;28;20510;-42
